Flugplatz Arnsberg-Menden

Für EDLA sind keine METAR/TAF Berichte vorhanden.
Es werden die Flugwettermeldungen vom Flugplatz Dortmund in 20 km Entfernung angezeigt.

Bericht für EDLW

vom 30.03. um 23:20 UTC

Wind 7 kt aus 30°

Sichtweite 10 km oder mehr

bedeckt in 600 ft

Temperatur 3.0°C

Taupunkt 2.0°C

Luftfeuchtigkeit 93%

Luftdruck 1027 hPa

EDLW 302320Z AUTO 03007KT 350V050 9999 // OVC006/// 03/02 Q1027

Prognose für EDLW

vom 30.03. um 17:00 UTC

Am 30.03. zwischen 18:00 UTC und 20:00 UTC

Wind 6 kt aus 300°

Sichtweite 10 km oder mehr

aufgebrochene Bewölkung in 2000 ft


Am 30.03. zwischen 18:00 UTC und 20:00 UTC zeitweise mit einer Wahrscheinlichkeit von 30%

Sichtweite 4000 m

schwacher Regenschauer

schwacher Schneeschauer

aufgebrochene Bewölkung in 1200 ft


Am 30.03. zwischen 20:00 und 23:00 UTC übergehend zu

variable Windrichtung mit 3 kt

Sichtweite 10 km oder mehr

aufgebrochene Bewölkung in 2000 ft


Am 30.03. zwischen 23:00 UTC und 08:00 UTC zeitweise mit einer Wahrscheinlichkeit von 40%

Wind 5 kt aus 50°

aufgebrochene Bewölkung in 800 ft


Zwischen 08:00 und 10:00 UTC übergehend zu

Wind 7 kt aus 60°

Sichtweite 10 km oder mehr

aufgebrochene Bewölkung in 2000 ft

TAF EDLW 301700Z 3018/3118 30006KT 9999 BKN020 PROB30 TEMPO 3018/3020 4000 -SHRASN BKN012TCU BECMG 3020/3023 VRB03KT PROB40 TEMPO 3023/3108 05005KT BKN008 BECMG 3108/3110 06007KT
Impressum